createdAt,value
2023-04-02T00:03:22.649Z,5.2
2023-04-02T00:43:30.551Z,4.8
2023-04-02T00:53:33.084Z,4.7
2023-04-02T01:03:35.058Z,4.5
2023-04-02T01:13:37.250Z,4.4
2023-04-02T01:23:39.760Z,4.3
2023-04-02T01:53:46.519Z,4.2
2023-04-02T02:03:48.241Z,4.1
2023-04-02T03:24:05.082Z,3.4
2023-04-02T04:54:23.746Z,2.7
2023-04-02T05:14:28.183Z,2.6
2023-04-02T05:34:31.993Z,2.5
2023-04-02T05:44:34.010Z,2.4
2023-04-02T05:54:36.152Z,2.4
2023-04-02T06:04:38.133Z,2.3
2023-04-02T06:14:40.449Z,2.3
2023-04-02T06:24:42.664Z,2.3
2023-04-02T06:34:45.125Z,2.2
2023-04-02T06:44:46.885Z,2.2
2023-04-02T06:54:48.934Z,2.2
2023-04-02T07:04:51.492Z,2.2
2023-04-02T07:14:53.168Z,2.2
2023-04-02T07:24:55.083Z,2.2
2023-04-02T07:34:57.012Z,2.4
2023-04-02T07:44:59.230Z,2.5
2023-04-02T07:55:01.625Z,2.4
2023-04-02T08:05:04.085Z,2.5
2023-04-02T08:15:06.628Z,2.5
2023-04-02T08:25:08.283Z,2.6
2023-04-02T08:35:10.488Z,2.8
2023-04-02T08:45:24.061Z,2.7
2023-04-02T08:55:14.844Z,2.8
2023-04-02T09:05:17.273Z,3
2023-04-02T09:15:19.798Z,2.9
2023-04-02T09:25:22.285Z,3
2023-04-02T09:35:26.790Z,3.2
2023-04-02T09:45:26.825Z,3.2
2023-04-02T09:55:28.612Z,3.2
2023-04-02T10:05:40.365Z,3.2
2023-04-02T10:15:33.132Z,3.3
2023-04-02T10:25:35.189Z,3.5
2023-04-02T10:35:37.075Z,3.6
2023-04-02T10:45:38.821Z,3.6
2023-04-02T10:55:41.032Z,3.6
2023-04-02T11:05:43.222Z,4
2023-04-02T11:15:45.062Z,3.9
2023-04-02T11:25:47.248Z,3.7
2023-04-02T11:35:49.446Z,4.2
2023-04-02T11:45:53.255Z,4.3
2023-04-02T11:55:53.786Z,4.1
2023-04-02T12:05:56.337Z,4.3
2023-04-02T12:15:58.715Z,4.8
2023-04-02T12:26:00.721Z,5.1
2023-04-02T12:36:02.789Z,5.1
2023-04-02T12:46:04.525Z,6.3
2023-04-02T12:56:07.187Z,6.4
2023-04-02T13:06:09.513Z,6.1
2023-04-02T13:16:11.233Z,6
2023-04-02T13:26:13.028Z,6
2023-04-02T13:36:15.628Z,6.5
2023-04-02T13:46:17.499Z,5.9
2023-04-02T14:26:27.015Z,7.2
2023-04-02T14:36:29.670Z,6.4
2023-04-02T14:46:31.699Z,6.8
2023-04-02T14:56:33.718Z,6.2
2023-04-02T15:06:35.477Z,6.3
2023-04-02T15:16:37.646Z,6.2
2023-04-02T15:26:40.122Z,6.2
2023-04-02T15:36:42.692Z,6
2023-04-02T15:46:44.699Z,6.6
2023-04-02T15:56:46.988Z,6.1
2023-04-02T16:06:49.461Z,6.3
2023-04-02T16:16:51.906Z,6.2
2023-04-02T16:26:53.903Z,6.2
2023-04-02T16:36:56.198Z,6.4
2023-04-02T16:46:58.159Z,6.3
2023-04-02T16:57:00.702Z,6.4
2023-04-02T17:07:03.283Z,6.2
2023-04-02T17:17:04.938Z,6.2
2023-04-02T17:27:06.851Z,6
2023-04-02T17:37:08.734Z,6
2023-04-02T17:47:10.975Z,5.7
2023-04-02T17:57:13.494Z,5.6
2023-04-02T18:17:18.299Z,5.2
2023-04-02T18:27:20.180Z,5
2023-04-02T18:37:22.534Z,4.9
2023-04-02T18:47:24.696Z,4.7
2023-04-02T18:57:26.383Z,4.5
2023-04-02T19:07:28.077Z,4.3
2023-04-02T19:17:29.854Z,4
2023-04-02T19:27:32.352Z,3.8
2023-04-02T19:37:34.690Z,3.4
2023-04-02T19:47:37.129Z,3
2023-04-02T19:57:39.265Z,2.8
2023-04-02T20:17:43.166Z,2.5
2023-04-02T20:27:45.549Z,2.3
2023-04-02T20:37:47.659Z,2.3
2023-04-02T20:47:49.968Z,2.2
2023-04-02T20:57:51.903Z,2.2
2023-04-02T21:07:54.131Z,2.1
2023-04-02T21:17:56.273Z,1.8
2023-04-02T21:27:57.944Z,1.8
2023-04-02T21:38:00.045Z,1.6
2023-04-02T21:48:02.430Z,1.5
2023-04-02T21:58:04.404Z,1.5
2023-04-02T22:08:06.935Z,1.4
2023-04-02T22:18:08.610Z,1.6
2023-04-02T22:18:15.506Z,1.6
2023-04-02T22:28:17.392Z,1.3
2023-04-02T22:38:19.882Z,0.8
2023-04-02T22:48:22.583Z,0.6
2023-04-02T22:58:24.343Z,0.2
2023-04-02T23:08:26.873Z,0.5
2023-04-02T23:18:28.659Z,0
2023-04-02T23:28:31.070Z,0
2023-04-02T23:38:32.875Z,0
2023-04-02T23:58:37.560Z,0.6
